sensor_id;sensor_type;location;lat;lon;timestamp;pressure;altitude;pressure_sealevel;temperature;humidity
10460;BME280;54412;51.206;6.888;2022-08-04T00:06:03;100600.75;;;26.95;45.76
10460;BME280;54412;51.206;6.888;2022-08-04T00:08:43;100600.78;;;27.09;45.25
10460;BME280;54412;51.206;6.888;2022-08-04T00:11:14;100601.75;;;26.94;45.46
10460;BME280;54412;51.206;6.888;2022-08-04T00:13:55;100593.56;;;27.02;45.47
10460;BME280;54412;51.206;6.888;2022-08-04T00:16:22;100593.91;;;26.99;45.68
10460;BME280;54412;51.206;6.888;2022-08-04T00:19:03;100592.34;;;27.04;45.18
10460;BME280;54412;51.206;6.888;2022-08-04T00:21:34;100589.06;;;26.94;45.47
10460;BME280;54412;51.206;6.888;2022-08-04T00:24:01;100587.34;;;27.16;45.22
10460;BME280;54412;51.206;6.888;2022-08-04T00:26:27;100587.88;;;27.11;44.78
10460;BME280;54412;51.206;6.888;2022-08-04T00:28:55;100588.63;;;27.42;44.36
10460;BME280;54412;51.206;6.888;2022-08-04T00:31:21;100576.59;;;27.22;44.61
10460;BME280;54412;51.206;6.888;2022-08-04T00:33:48;100585.25;;;27.03;45.37
10460;BME280;54412;51.206;6.888;2022-08-04T00:36:16;100577.44;;;27.08;44.65
10460;BME280;54412;51.206;6.888;2022-08-04T00:38:43;100583.47;;;26.96;44.97
10460;BME280;54412;51.206;6.888;2022-08-04T00:49:55;100566.25;;;27.26;44.23
10460;BME280;54412;51.206;6.888;2022-08-04T00:55:39;100564.00;;;27.00;45.07
10460;BME280;54412;51.206;6.888;2022-08-04T00:58:22;100568.84;;;27.05;45.02
10460;BME280;54412;51.206;6.888;2022-08-04T01:01:05;100558.09;;;26.97;45.21
10460;BME280;54412;51.206;6.888;2022-08-04T01:04:02;100568.50;;;26.85;45.41
10460;BME280;54412;51.206;6.888;2022-08-04T01:15:11;100549.97;;;26.97;45.29
10460;BME280;54412;51.206;6.888;2022-08-04T01:17:56;100540.97;;;26.81;45.63
10460;BME280;54412;51.206;6.888;2022-08-04T01:20:34;100536.75;;;26.79;45.34
10460;BME280;54412;51.206;6.888;2022-08-04T01:26:12;100536.09;;;26.77;45.69
10460;BME280;54412;51.206;6.888;2022-08-04T01:29:07;100536.75;;;26.79;45.49
10460;BME280;54412;51.206;6.888;2022-08-04T01:32:04;100538.66;;;26.78;45.47
10460;BME280;54412;51.206;6.888;2022-08-04T01:34:51;100533.03;;;26.80;45.59
10460;BME280;54412;51.206;6.888;2022-08-04T01:40:56;100540.38;;;26.71;45.70
10460;BME280;54412;51.206;6.888;2022-08-04T01:43:23;100534.63;;;26.66;46.05
10460;BME280;54412;51.206;6.888;2022-08-04T01:45:56;100539.19;;;26.74;45.77
10460;BME280;54412;51.206;6.888;2022-08-04T01:48:26;100537.97;;;26.76;45.78
10460;BME280;54412;51.206;6.888;2022-08-04T01:50:57;100539.44;;;27.02;45.06
10460;BME280;54412;51.206;6.888;2022-08-04T01:53:30;100540.41;;;26.63;46.24
10460;BME280;54412;51.206;6.888;2022-08-04T01:55:57;100537.06;;;26.61;46.64
10460;BME280;54412;51.206;6.888;2022-08-04T01:58:29;100540.66;;;26.54;46.66
10460;BME280;54412;51.206;6.888;2022-08-04T02:01:05;100545.41;;;26.52;47.07
10460;BME280;54412;51.206;6.888;2022-08-04T02:03:34;100540.50;;;26.33;48.01
10460;BME280;54412;51.206;6.888;2022-08-04T02:06:40;100543.59;;;26.22;48.62
10460;BME280;54412;51.206;6.888;2022-08-04T02:09:40;100546.75;;;26.33;48.49
10460;BME280;54412;51.206;6.888;2022-08-04T02:18:22;100542.34;;;26.10;49.58
10460;BME280;54412;51.206;6.888;2022-08-04T02:20:57;100535.06;;;26.02;49.78
10460;BME280;54412;51.206;6.888;2022-08-04T02:23:39;100525.63;;;26.06;49.79
10460;BME280;54412;51.206;6.888;2022-08-04T02:26:16;100538.66;;;25.95;49.98
10460;BME280;54412;51.206;6.888;2022-08-04T02:29:02;100535.25;;;26.01;49.95
10460;BME280;54412;51.206;6.888;2022-08-04T02:31:38;100530.38;;;25.96;49.94
10460;BME280;54412;51.206;6.888;2022-08-04T02:34:42;100534.00;;;25.89;50.23
10460;BME280;54412;51.206;6.888;2022-08-04T02:37:09;100531.63;;;25.85;50.58
10460;BME280;54412;51.206;6.888;2022-08-04T02:39:36;100530.44;;;25.88;50.32
10460;BME280;54412;51.206;6.888;2022-08-04T02:42:04;100527.44;;;25.83;50.67
10460;BME280;54412;51.206;6.888;2022-08-04T02:44:31;100534.19;;;25.79;50.58
10460;BME280;54412;51.206;6.888;2022-08-04T02:46:59;100527.63;;;25.73;50.94
10460;BME280;54412;51.206;6.888;2022-08-04T02:49:29;100526.19;;;25.55;51.47
10460;BME280;54412;51.206;6.888;2022-08-04T02:51:58;100523.50;;;25.55;51.76
10460;BME280;54412;51.206;6.888;2022-08-04T02:54:32;100519.41;;;25.67;51.65
10460;BME280;54412;51.206;6.888;2022-08-04T02:57:00;100522.31;;;25.57;51.71
10460;BME280;54412;51.206;6.888;2022-08-04T02:59:29;100516.03;;;25.65;51.41
10460;BME280;54412;51.206;6.888;2022-08-04T03:02:02;100517.94;;;25.48;52.01
10460;BME280;54412;51.206;6.888;2022-08-04T03:04:40;100512.47;;;25.64;51.57
10460;BME280;54412;51.206;6.888;2022-08-04T03:07:47;100512.16;;;25.59;51.61
10460;BME280;54412;51.206;6.888;2022-08-04T03:19:34;100507.38;;;25.31;52.46
10460;BME280;54412;51.206;6.888;2022-08-04T03:28:26;100504.31;;;25.34;52.55
10460;BME280;54412;51.206;6.888;2022-08-04T03:37:02;100504.53;;;25.16;52.05
10460;BME280;54412;51.206;6.888;2022-08-04T03:40:06;100512.31;;;25.03;52.57
10460;BME280;54412;51.206;6.888;2022-08-04T03:43:26;100506.88;;;25.19;52.29
10460;BME280;54412;51.206;6.888;2022-08-04T03:46:15;100502.84;;;25.15;52.54
10460;BME280;54412;51.206;6.888;2022-08-04T03:58:22;100506.56;;;25.06;52.67
10460;BME280;54412;51.206;6.888;2022-08-04T04:01:41;100510.50;;;24.88;52.96
10460;BME280;54412;51.206;6.888;2022-08-04T04:07:23;100505.25;;;25.02;52.45
10460;BME280;54412;51.206;6.888;2022-08-04T04:10:21;100507.28;;;25.00;53.00
10460;BME280;54412;51.206;6.888;2022-08-04T04:13:34;100510.47;;;24.96;53.09
10460;BME280;54412;51.206;6.888;2022-08-04T04:16:37;100510.16;;;24.82;53.54
10460;BME280;54412;51.206;6.888;2022-08-04T04:19:27;100506.94;;;24.87;53.52
10460;BME280;54412;51.206;6.888;2022-08-04T04:34:18;100507.44;;;24.91;53.35
10460;BME280;54412;51.206;6.888;2022-08-04T04:39:54;100515.53;;;24.82;53.89
10460;BME280;54412;51.206;6.888;2022-08-04T04:45:53;100518.59;;;24.79;54.30
10460;BME280;54412;51.206;6.888;2022-08-04T04:51:40;100519.13;;;24.75;53.97
10460;BME280;54412;51.206;6.888;2022-08-04T04:54:10;100521.28;;;24.88;53.59
10460;BME280;54412;51.206;6.888;2022-08-04T04:57:16;100517.41;;;24.82;53.65
10460;BME280;54412;51.206;6.888;2022-08-04T05:00:04;100524.50;;;24.83;53.46
10460;BME280;54412;51.206;6.888;2022-08-04T05:09:14;100513.34;;;24.94;53.38
10460;BME280;54412;51.206;6.888;2022-08-04T05:14:45;100525.16;;;24.93;53.33
10460;BME280;54412;51.206;6.888;2022-08-04T05:17:49;100526.00;;;25.02;53.63
10460;BME280;54412;51.206;6.888;2022-08-04T05:20:28;100530.88;;;24.98;53.86
10460;BME280;54412;51.206;6.888;2022-08-04T05:23:12;100531.03;;;25.05;53.16
10460;BME280;54412;51.206;6.888;2022-08-04T05:26:03;100531.84;;;25.13;53.13
10460;BME280;54412;51.206;6.888;2022-08-04T05:28:40;100533.38;;;25.24;52.34
10460;BME280;54412;51.206;6.888;2022-08-04T05:31:22;100539.28;;;25.19;52.16
10460;BME280;54412;51.206;6.888;2022-08-04T05:34:20;100536.25;;;25.06;52.59
10460;BME280;54412;51.206;6.888;2022-08-04T05:36:52;100542.16;;;25.10;52.38
10460;BME280;54412;51.206;6.888;2022-08-04T05:39:25;100533.72;;;25.13;52.89
10460;BME280;54412;51.206;6.888;2022-08-04T05:41:52;100537.22;;;25.37;52.38
10460;BME280;54412;51.206;6.888;2022-08-04T05:44:21;100543.00;;;25.10;52.93
10460;BME280;54412;51.206;6.888;2022-08-04T05:46:53;100544.31;;;25.30;52.45
10460;BME280;54412;51.206;6.888;2022-08-04T05:49:22;100535.72;;;25.19;53.02
10460;BME280;54412;51.206;6.888;2022-08-04T05:51:48;100542.28;;;25.24;53.28
10460;BME280;54412;51.206;6.888;2022-08-04T05:54:17;100539.25;;;25.43;52.65
10460;BME280;54412;51.206;6.888;2022-08-04T05:56:46;100543.78;;;25.35;52.78
10460;BME280;54412;51.206;6.888;2022-08-04T05:59:14;100532.81;;;25.36;52.78
10460;BME280;54412;51.206;6.888;2022-08-04T06:01:43;100530.34;;;25.65;51.31
10460;BME280;54412;51.206;6.888;2022-08-04T06:04:12;100527.34;;;25.60;50.79
10460;BME280;54412;51.206;6.888;2022-08-04T06:06:40;100533.88;;;25.74;50.16
10460;BME280;54412;51.206;6.888;2022-08-04T06:09:07;100534.47;;;25.53;50.95
10460;BME280;54412;51.206;6.888;2022-08-04T06:11:34;100528.41;;;25.51;51.24
10460;BME280;54412;51.206;6.888;2022-08-04T06:14:04;100527.66;;;25.65;50.45
10460;BME280;54412;51.206;6.888;2022-08-04T06:16:39;100527.16;;;25.70;50.64
10460;BME280;54412;51.206;6.888;2022-08-04T06:19:10;100523.25;;;25.72;50.10
10460;BME280;54412;51.206;6.888;2022-08-04T06:21:44;100528.16;;;26.00;49.56
10460;BME280;54412;51.206;6.888;2022-08-04T06:24:21;100529.84;;;26.01;49.04
10460;BME280;54412;51.206;6.888;2022-08-04T06:26:50;100531.78;;;25.92;48.96
10460;BME280;54412;51.206;6.888;2022-08-04T06:29:19;100528.88;;;25.94;48.59
10460;BME280;54412;51.206;6.888;2022-08-04T06:31:52;100526.13;;;26.02;48.68
10460;BME280;54412;51.206;6.888;2022-08-04T06:34:24;100522.94;;;25.98;48.60
10460;BME280;54412;51.206;6.888;2022-08-04T06:36:51;100519.94;;;26.24;47.76
10460;BME280;54412;51.206;6.888;2022-08-04T06:39:21;100527.34;;;26.30;47.35
10460;BME280;54412;51.206;6.888;2022-08-04T06:41:49;100526.72;;;26.20;47.13
10460;BME280;54412;51.206;6.888;2022-08-04T06:44:18;100529.13;;;26.37;47.16
10460;BME280;54412;51.206;6.888;2022-08-04T06:46:46;100532.38;;;26.33;47.17
10460;BME280;54412;51.206;6.888;2022-08-04T06:49:13;100528.22;;;26.45;47.00
10460;BME280;54412;51.206;6.888;2022-08-04T06:51:41;100533.91;;;26.50;46.53
10460;BME280;54412;51.206;6.888;2022-08-04T06:54:07;100526.47;;;26.52;46.05
10460;BME280;54412;51.206;6.888;2022-08-04T06:56:35;100516.19;;;26.70;45.51
10460;BME280;54412;51.206;6.888;2022-08-04T06:59:04;100520.34;;;26.80;45.97
10460;BME280;54412;51.206;6.888;2022-08-04T07:01:31;100520.47;;;26.87;45.50
10460;BME280;54412;51.206;6.888;2022-08-04T07:03:59;100519.81;;;27.00;45.16
10460;BME280;54412;51.206;6.888;2022-08-04T07:06:25;100524.88;;;27.17;44.48
10460;BME280;54412;51.206;6.888;2022-08-04T07:08:52;100521.97;;;27.19;43.97
10460;BME280;54412;51.206;6.888;2022-08-04T07:11:19;100521.78;;;27.20;44.13
10460;BME280;54412;51.206;6.888;2022-08-04T07:13:46;100521.47;;;27.38;44.09
10460;BME280;54412;51.206;6.888;2022-08-04T07:16:16;100522.28;;;27.53;44.31
10460;BME280;54412;51.206;6.888;2022-08-04T07:18:43;100524.00;;;27.54;43.76
10460;BME280;54412;51.206;6.888;2022-08-04T07:21:17;100519.28;;;27.77;43.86
10460;BME280;54412;51.206;6.888;2022-08-04T07:23:44;100524.97;;;27.67;43.28
10460;BME280;54412;51.206;6.888;2022-08-04T07:26:10;100527.59;;;27.75;42.95
10460;BME280;54412;51.206;6.888;2022-08-04T07:28:38;100528.88;;;27.94;42.50
10460;BME280;54412;51.206;6.888;2022-08-04T07:31:05;100533.63;;;28.07;42.17
10460;BME280;54412;51.206;6.888;2022-08-04T07:33:34;100530.75;;;28.08;42.04
10460;BME280;54412;51.206;6.888;2022-08-04T07:36:00;100529.47;;;28.25;41.98
10460;BME280;54412;51.206;6.888;2022-08-04T07:38:26;100534.06;;;28.10;41.91
10460;BME280;54412;51.206;6.888;2022-08-04T07:40:52;100534.84;;;28.04;42.04
10460;BME280;54412;51.206;6.888;2022-08-04T07:43:18;100533.78;;;28.41;41.58
10460;BME280;54412;51.206;6.888;2022-08-04T07:45:44;100528.19;;;28.42;41.04
10460;BME280;54412;51.206;6.888;2022-08-04T07:48:10;100525.59;;;28.55;40.60
10460;BME280;54412;51.206;6.888;2022-08-04T07:50:37;100537.34;;;28.41;41.38
10460;BME280;54412;51.206;6.888;2022-08-04T07:53:05;100526.22;;;28.78;40.35
10460;BME280;54412;51.206;6.888;2022-08-04T07:55:31;100528.94;;;28.78;40.75
10460;BME280;54412;51.206;6.888;2022-08-04T07:57:57;100524.50;;;28.71;40.31
10460;BME280;54412;51.206;6.888;2022-08-04T08:00:23;100525.09;;;28.66;41.00
10460;BME280;54412;51.206;6.888;2022-08-04T08:02:51;100523.50;;;29.00;40.56
10460;BME280;54412;51.206;6.888;2022-08-04T08:05:20;100522.31;;;29.09;39.68
10460;BME280;54412;51.206;6.888;2022-08-04T08:07:50;100527.28;;;29.05;39.36
10460;BME280;54412;51.206;6.888;2022-08-04T08:10:17;100530.09;;;29.18;39.06
10460;BME280;54412;51.206;6.888;2022-08-04T08:12:43;100534.56;;;29.26;39.56
10460;BME280;54412;51.206;6.888;2022-08-04T08:15:10;100537.22;;;29.53;39.11
10460;BME280;54412;51.206;6.888;2022-08-04T08:17:39;100544.34;;;29.20;40.12
10460;BME280;54412;51.206;6.888;2022-08-04T08:20:09;100535.66;;;29.38;39.60
10460;BME280;54412;51.206;6.888;2022-08-04T08:22:38;100526.38;;;29.60;39.10
10460;BME280;54412;51.206;6.888;2022-08-04T08:25:07;100528.09;;;29.67;38.88
10460;BME280;54412;51.206;6.888;2022-08-04T08:27:33;100524.19;;;29.70;38.82
10460;BME280;54412;51.206;6.888;2022-08-04T08:30:01;100528.91;;;29.61;38.35
10460;BME280;54412;51.206;6.888;2022-08-04T08:32:27;100525.91;;;29.84;38.59
10460;BME280;54412;51.206;6.888;2022-08-04T08:34:53;100521.69;;;29.75;38.72
10460;BME280;54412;51.206;6.888;2022-08-04T08:37:56;100519.72;;;30.10;38.36
10460;BME280;54412;51.206;6.888;2022-08-04T08:40:45;100518.44;;;30.06;37.94
10460;BME280;54412;51.206;6.888;2022-08-04T08:46:41;100503.06;;;30.26;37.31
10460;BME280;54412;51.206;6.888;2022-08-04T08:49:27;100504.31;;;30.36;37.06
10460;BME280;54412;51.206;6.888;2022-08-04T08:58:34;100511.25;;;30.71;36.77
10460;BME280;54412;51.206;6.888;2022-08-04T09:02:19;100515.25;;;30.95;36.32
10460;BME280;54412;51.206;6.888;2022-08-04T09:10:59;100506.19;;;31.34;35.24
10460;BME280;54412;51.206;6.888;2022-08-04T09:14:07;100503.00;;;31.30;35.43
10460;BME280;54412;51.206;6.888;2022-08-04T09:16:57;100508.66;;;31.55;36.05
10460;BME280;54412;51.206;6.888;2022-08-04T09:19:38;100515.03;;;31.93;35.61
10460;BME280;54412;51.206;6.888;2022-08-04T09:22:27;100516.09;;;31.79;34.57
10460;BME280;54412;51.206;6.888;2022-08-04T09:25:06;100517.88;;;32.11;34.24
10460;BME280;54412;51.206;6.888;2022-08-04T09:27:58;100514.88;;;32.19;35.19
10460;BME280;54412;51.206;6.888;2022-08-04T09:30:44;100520.38;;;31.62;34.69
10460;BME280;54412;51.206;6.888;2022-08-04T09:33:43;100524.03;;;31.87;35.16
10460;BME280;54412;51.206;6.888;2022-08-04T09:36:52;100520.72;;;32.23;35.39
10460;BME280;54412;51.206;6.888;2022-08-04T09:39:36;100529.38;;;32.13;34.31
10460;BME280;54412;51.206;6.888;2022-08-04T09:42:34;100522.31;;;31.99;34.20
10460;BME280;54412;51.206;6.888;2022-08-04T09:48:21;100514.88;;;32.19;34.17
10460;BME280;54412;51.206;6.888;2022-08-04T09:50:57;100519.34;;;32.45;34.39
10460;BME280;54412;51.206;6.888;2022-08-04T09:53:56;100527.56;;;32.69;32.76
10460;BME280;54412;51.206;6.888;2022-08-04T09:56:40;100525.34;;;32.85;33.22
10460;BME280;54412;51.206;6.888;2022-08-04T09:59:26;100522.69;;;33.03;33.41
10460;BME280;54412;51.206;6.888;2022-08-04T10:01:59;100524.97;;;33.06;32.47
10460;BME280;54412;51.206;6.888;2022-08-04T10:04:31;100529.50;;;32.87;33.11
10460;BME280;54412;51.206;6.888;2022-08-04T10:10:26;100524.06;;;32.62;33.84
10460;BME280;54412;51.206;6.888;2022-08-04T10:13:13;100532.44;;;32.30;33.88
10460;BME280;54412;51.206;6.888;2022-08-04T10:21:18;100537.91;;;32.30;34.11
10460;BME280;54412;51.206;6.888;2022-08-04T10:27:06;100550.69;;;31.92;34.99
10460;BME280;54412;51.206;6.888;2022-08-04T10:29:45;100549.63;;;31.86;35.37
10460;BME280;54412;51.206;6.888;2022-08-04T10:35:17;100542.22;;;32.50;34.87
10460;BME280;54412;51.206;6.888;2022-08-04T10:40:55;100537.78;;;32.18;35.46
10460;BME280;54412;51.206;6.888;2022-08-04T10:46:13;100546.75;;;32.25;33.85
10460;BME280;54412;51.206;6.888;2022-08-04T10:49:06;100547.78;;;32.62;32.70
10460;BME280;54412;51.206;6.888;2022-08-04T10:55:16;100554.66;;;33.63;31.60
10460;BME280;54412;51.206;6.888;2022-08-04T10:58:00;100555.88;;;33.85;30.85
10460;BME280;54412;51.206;6.888;2022-08-04T11:00:35;100554.44;;;33.64;31.24
10460;BME280;54412;51.206;6.888;2022-08-04T11:03:05;100557.50;;;33.74;30.99
10460;BME280;54412;51.206;6.888;2022-08-04T11:05:52;100552.41;;;33.96;31.87
10460;BME280;54412;51.206;6.888;2022-08-04T11:08:30;100558.50;;;33.98;30.71
10460;BME280;54412;51.206;6.888;2022-08-04T11:11:04;100559.25;;;33.69;31.01
10460;BME280;54412;51.206;6.888;2022-08-04T11:14:10;100560.41;;;33.37;31.24
10460;BME280;54412;51.206;6.888;2022-08-04T11:19:34;100553.38;;;33.05;33.05
10460;BME280;54412;51.206;6.888;2022-08-04T11:22:30;100563.50;;;32.98;33.64
10460;BME280;54412;51.206;6.888;2022-08-04T11:25:21;100559.66;;;33.05;32.98
10460;BME280;54412;51.206;6.888;2022-08-04T11:30:54;100573.06;;;32.51;33.65
10460;BME280;54412;51.206;6.888;2022-08-04T11:36:52;100569.34;;;32.39;33.77
10460;BME280;54412;51.206;6.888;2022-08-04T11:39:34;100562.66;;;32.41;33.93
10460;BME280;54412;51.206;6.888;2022-08-04T11:44:48;100572.19;;;32.57;34.88
10460;BME280;54412;51.206;6.888;2022-08-04T11:47:29;100566.38;;;32.47;34.81
10460;BME280;54412;51.206;6.888;2022-08-04T11:50:13;100576.38;;;32.22;35.38
10460;BME280;54412;51.206;6.888;2022-08-04T11:52:47;100580.41;;;32.13;35.92
10460;BME280;54412;51.206;6.888;2022-08-04T11:55:16;100577.06;;;32.04;36.44
10460;BME280;54412;51.206;6.888;2022-08-04T11:57:47;100580.88;;;32.03;36.83
10460;BME280;54412;51.206;6.888;2022-08-04T12:00:15;100590.75;;;31.84;37.39
10460;BME280;54412;51.206;6.888;2022-08-04T12:05:54;100595.50;;;31.38;38.88
10460;BME280;54412;51.206;6.888;2022-08-04T12:08:32;100594.88;;;31.36;39.60
10460;BME280;54412;51.206;6.888;2022-08-04T12:11:15;100591.69;;;31.33;40.93
10460;BME280;54412;51.206;6.888;2022-08-04T12:17:02;100578.94;;;31.40;41.10
10460;BME280;54412;51.206;6.888;2022-08-04T12:19:32;100574.25;;;31.73;40.49
10460;BME280;54412;51.206;6.888;2022-08-04T12:22:06;100576.75;;;31.74;40.62
10460;BME280;54412;51.206;6.888;2022-08-04T12:25:08;100578.59;;;31.87;39.48
10460;BME280;54412;51.206;6.888;2022-08-04T12:27:48;100585.63;;;32.58;37.57
10460;BME280;54412;51.206;6.888;2022-08-04T12:30:18;100584.03;;;32.44;37.83
10460;BME280;54412;51.206;6.888;2022-08-04T12:33:01;100582.66;;;32.22;37.25
10460;BME280;54412;51.206;6.888;2022-08-04T12:35:56;100585.53;;;31.83;37.61
10460;BME280;54412;51.206;6.888;2022-08-04T12:38:28;100580.69;;;31.85;38.03
10460;BME280;54412;51.206;6.888;2022-08-04T12:40:59;100586.59;;;31.82;37.75
10460;BME280;54412;51.206;6.888;2022-08-04T12:43:38;100580.28;;;31.95;37.64
10460;BME280;54412;51.206;6.888;2022-08-04T12:46:08;100579.03;;;32.41;36.77
10460;BME280;54412;51.206;6.888;2022-08-04T12:48:36;100583.81;;;32.77;36.67
10460;BME280;54412;51.206;6.888;2022-08-04T12:51:06;100586.41;;;33.21;35.19
10460;BME280;54412;51.206;6.888;2022-08-04T12:53:40;100584.56;;;33.40;35.37
10460;BME280;54412;51.206;6.888;2022-08-04T12:56:10;100590.22;;;33.45;34.20
10460;BME280;54412;51.206;6.888;2022-08-04T12:58:41;100592.66;;;33.28;35.13
10460;BME280;54412;51.206;6.888;2022-08-04T13:01:20;100592.63;;;32.79;36.38
10460;BME280;54412;51.206;6.888;2022-08-04T13:03:57;100588.59;;;32.81;36.20
10460;BME280;54412;51.206;6.888;2022-08-04T13:06:28;100583.97;;;32.51;36.97
10460;BME280;54412;51.206;6.888;2022-08-04T13:09:04;100582.59;;;32.35;38.19
10460;BME280;54412;51.206;6.888;2022-08-04T13:11:39;100586.19;;;32.29;37.91
10460;BME280;54412;51.206;6.888;2022-08-04T13:14:08;100582.25;;;32.25;38.16
10460;BME280;54412;51.206;6.888;2022-08-04T13:16:36;100574.88;;;32.63;37.80
10460;BME280;54412;51.206;6.888;2022-08-04T13:19:07;100575.94;;;32.94;37.90
10460;BME280;54412;51.206;6.888;2022-08-04T13:21:34;100581.13;;;33.02;37.62
10460;BME280;54412;51.206;6.888;2022-08-04T13:24:10;100576.44;;;33.33;36.71
10460;BME280;54412;51.206;6.888;2022-08-04T13:26:53;100580.38;;;33.62;36.33
10460;BME280;54412;51.206;6.888;2022-08-04T13:29:22;100578.00;;;33.41;37.37
10460;BME280;54412;51.206;6.888;2022-08-04T13:31:50;100573.44;;;33.17;36.64
10460;BME280;54412;51.206;6.888;2022-08-04T13:34:18;100570.72;;;32.86;36.72
10460;BME280;54412;51.206;6.888;2022-08-04T13:36:47;100572.03;;;32.76;37.48
10460;BME280;54412;51.206;6.888;2022-08-04T13:39:20;100568.97;;;32.66;37.55
10460;BME280;54412;51.206;6.888;2022-08-04T13:41:54;100565.19;;;32.67;38.39
10460;BME280;54412;51.206;6.888;2022-08-04T13:44:26;100570.94;;;32.59;37.79
10460;BME280;54412;51.206;6.888;2022-08-04T13:47:00;100564.72;;;32.39;37.98
10460;BME280;54412;51.206;6.888;2022-08-04T13:49:27;100562.03;;;32.33;38.29
10460;BME280;54412;51.206;6.888;2022-08-04T13:51:58;100570.56;;;32.05;38.77
10460;BME280;54412;51.206;6.888;2022-08-04T13:54:27;100559.13;;;31.77;39.14
10460;BME280;54412;51.206;6.888;2022-08-04T13:57:01;100565.75;;;31.37;39.75
10460;BME280;54412;51.206;6.888;2022-08-04T13:59:36;100569.91;;;31.46;39.66
10460;BME280;54412;51.206;6.888;2022-08-04T14:02:33;100571.16;;;31.50;39.87
10460;BME280;54412;51.206;6.888;2022-08-04T14:05:30;100569.50;;;31.36;39.40
10460;BME280;54412;51.206;6.888;2022-08-04T14:08:10;100565.94;;;31.22;39.46
10460;BME280;54412;51.206;6.888;2022-08-04T14:10:39;100568.88;;;31.21;39.88
10460;BME280;54412;51.206;6.888;2022-08-04T14:13:05;100569.31;;;31.05;40.30
10460;BME280;54412;51.206;6.888;2022-08-04T14:15:37;100564.88;;;31.30;39.92
10460;BME280;54412;51.206;6.888;2022-08-04T14:18:38;100566.78;;;31.23;39.90
10460;BME280;54412;51.206;6.888;2022-08-04T14:23:44;100568.88;;;30.95;40.28
10460;BME280;54412;51.206;6.888;2022-08-04T14:26:31;100569.91;;;31.00;39.84
10460;BME280;54412;51.206;6.888;2022-08-04T14:31:36;100565.31;;;30.88;39.31
10460;BME280;54412;51.206;6.888;2022-08-04T14:34:02;100559.44;;;30.77;40.05
10460;BME280;54412;51.206;6.888;2022-08-04T14:36:42;100558.22;;;30.87;40.04
10460;BME280;54412;51.206;6.888;2022-08-04T14:39:09;100557.16;;;30.81;40.09
10460;BME280;54412;51.206;6.888;2022-08-04T14:41:47;100559.00;;;30.74;40.47
10460;BME280;54412;51.206;6.888;2022-08-04T14:44:13;100561.94;;;30.72;40.67
10460;BME280;54412;51.206;6.888;2022-08-04T14:46:52;100563.19;;;30.76;40.77
10460;BME280;54412;51.206;6.888;2022-08-04T14:49:18;100565.69;;;30.65;40.92
10460;BME280;54412;51.206;6.888;2022-08-04T14:51:58;100558.78;;;30.75;40.70
10460;BME280;54412;51.206;6.888;2022-08-04T14:54:31;100561.28;;;30.51;41.03
10460;BME280;54412;51.206;6.888;2022-08-04T14:57:05;100562.34;;;30.56;41.54
10460;BME280;54412;51.206;6.888;2022-08-04T14:59:46;100563.97;;;30.44;41.39
10460;BME280;54412;51.206;6.888;2022-08-04T15:02:14;100563.13;;;30.37;42.06
10460;BME280;54412;51.206;6.888;2022-08-04T15:04:42;100568.91;;;30.21;42.17
10460;BME280;54412;51.206;6.888;2022-08-04T15:07:10;100567.41;;;30.12;42.53
10460;BME280;54412;51.206;6.888;2022-08-04T15:09:36;100566.44;;;30.26;42.34
10460;BME280;54412;51.206;6.888;2022-08-04T15:12:03;100576.97;;;30.49;41.64
10460;BME280;54412;51.206;6.888;2022-08-04T15:14:30;100568.38;;;30.39;41.97
10460;BME280;54412;51.206;6.888;2022-08-04T15:16:56;100566.63;;;30.18;42.54
10460;BME280;54412;51.206;6.888;2022-08-04T15:19:23;100566.00;;;30.23;42.19
10460;BME280;54412;51.206;6.888;2022-08-04T15:21:50;100566.63;;;30.18;42.23
10460;BME280;54412;51.206;6.888;2022-08-04T15:24:16;100575.81;;;30.17;42.45
10460;BME280;54412;51.206;6.888;2022-08-04T15:26:55;100573.06;;;30.04;43.25
10460;BME280;54412;51.206;6.888;2022-08-04T15:29:36;100563.13;;;30.31;42.12
10460;BME280;54412;51.206;6.888;2022-08-04T15:32:05;100569.94;;;30.14;42.33
10460;BME280;54412;51.206;6.888;2022-08-04T15:34:47;100570.38;;;30.17;42.02
10460;BME280;54412;51.206;6.888;2022-08-04T15:43:10;100567.25;;;30.20;42.08
10460;BME280;54412;51.206;6.888;2022-08-04T15:45:50;100567.84;;;30.16;42.89
10460;BME280;54412;51.206;6.888;2022-08-04T15:51:02;100561.97;;;30.06;43.07
10460;BME280;54412;51.206;6.888;2022-08-04T15:58:53;100569.97;;;29.73;44.59
10460;BME280;54412;51.206;6.888;2022-08-04T16:01:20;100574.03;;;29.56;44.44
10460;BME280;54412;51.206;6.888;2022-08-04T16:03:49;100575.50;;;29.52;44.54
10460;BME280;54412;51.206;6.888;2022-08-04T16:16:28;100579.81;;;29.74;44.99
10460;BME280;54412;51.206;6.888;2022-08-04T16:21:50;100554.59;;;29.93;44.78
10460;BME280;54412;51.206;6.888;2022-08-04T16:24:34;100543.75;;;30.06;44.54
10460;BME280;54412;51.206;6.888;2022-08-04T16:27:04;100539.47;;;30.31;44.01
10460;BME280;54412;51.206;6.888;2022-08-04T16:34:34;100542.22;;;30.38;44.50
10460;BME280;54412;51.206;6.888;2022-08-04T16:37:04;100546.94;;;30.16;45.15
10460;BME280;54412;51.206;6.888;2022-08-04T16:39:30;100551.63;;;30.42;44.14
10460;BME280;54412;51.206;6.888;2022-08-04T16:41:56;100562.50;;;30.29;44.20
10460;BME280;54412;51.206;6.888;2022-08-04T16:44:35;100556.63;;;30.32;44.12
10460;BME280;54412;51.206;6.888;2022-08-04T16:47:05;100566.56;;;30.12;44.79
10460;BME280;54412;51.206;6.888;2022-08-04T16:49:32;100559.91;;;30.14;45.12
10460;BME280;54412;51.206;6.888;2022-08-04T16:52:03;100564.41;;;30.48;43.75
10460;BME280;54412;51.206;6.888;2022-08-04T16:54:31;100574.84;;;30.31;44.04
10460;BME280;54412;51.206;6.888;2022-08-04T16:56:58;100573.06;;;30.11;44.57